Terminal Aerodrome Forecast
Issued by NWS Twin Cities, MN

Home | Current Version | Previous Version | Text Only | Print | Product List | Glossary On
Versions: 1 2 3 4 5 6 7 8 9 10 11 12 13 14 15 16 17
000
FTUS43 KMPX 272000 AAA
TAFEAU
TAF AMD
KEAU 272058Z 2721/2818 27010KT P6SM OVC015
     FM272200 26009KT P6SM SKC
     FM280000 24005KT P6SM SKC
     FM281500 31006KT P6SM SCT020 BKN035=

USA.gov is the U.S. government's official web portal to all federal, state and local government web resources and services.